Time;durP1;ratioP1;P1;durP2;ratioP2;P2;SDS_P1;SDS_P2;PMS_P1;PMS_P2;Temp;Humidity;BMP_temperature;BMP_pressure;BME280_temperature;BME280_humidity;BME280_pressure;Samples;Min_cycle;Max_cycle;Signal;HPM_P1;HPM_P2
2023/03/06 00:00:03;;;;;;;35.47;18.03;;;;;;;-143.84;76.43;45241.41;5098734;28;20489;-76
2023/03/06 00:02:32;;;;;;;31.17;18.50;;;;;;;-143.84;76.12;45199.50;5098542;28;21002;-76
2023/03/06 00:04:59;;;;;;;31.73;20.00;;;;;;;-143.84;76.66;45191.88;5098142;28;20460;-76
2023/03/06 00:07:26;;;;;;;32.00;19.60;;;;;;;-143.84;77.15;45184.25;5098794;28;20827;-76
2023/03/06 00:09:53;;;;;;;33.30;20.63;;;;;;;-143.84;77.79;45191.88;5083385;28;20851;-76
2023/03/06 00:12:20;;;;;;;36.27;22.80;;;;;;;-143.84;78.37;45214.72;5076282;28;20494;-76
2023/03/06 00:14:48;;;;;;;45.77;24.10;;;;;;;-143.84;78.76;45212.84;5077588;28;20484;-76
2023/03/06 00:17:15;;;;;;;40.03;23.97;;;;;;;-143.84;78.48;45199.50;5078098;28;20449;-76
2023/03/06 00:19:43;;;;;;;36.10;22.50;;;;;;;-143.84;78.31;45191.88;5078202;28;20433;-76
2023/03/06 00:22:13;;;;;;;44.73;22.50;;;;;;;-143.84;78.20;45178.56;5078020;28;20448;-77
2023/03/06 00:24:41;;;;;;;37.37;21.27;;;;;;;-143.84;78.01;45184.25;5078350;28;20433;-76
2023/03/06 00:27:08;;;;;;;37.63;21.60;;;;;;;-143.84;77.59;45210.94;5078283;28;20461;-76
2023/03/06 00:29:36;;;;;;;38.80;21.27;;;;;;;-143.84;77.66;45207.13;5078449;28;20444;-76
2023/03/06 00:32:03;;;;;;;34.73;18.83;;;;;;;-143.84;76.81;45220.44;5078268;28;20428;-76
2023/03/06 00:34:30;;;;;;;29.57;18.00;;;;;;;-143.84;76.99;45189.97;5076155;28;20515;-76
2023/03/06 00:36:58;;;;;;;27.90;16.80;;;;;;;-143.84;76.20;45228.06;5077088;28;20475;-79
2023/03/06 00:39:25;;;;;;;25.27;15.80;;;;;;;-143.84;75.55;45228.06;5089520;28;20515;-79
2023/03/06 00:41:53;;;;;;;28.47;16.37;;;;;;;-143.84;74.99;45229.97;5098285;28;20499;-79
2023/03/06 00:44:20;;;;;;;24.53;15.90;;;;;;;-143.84;74.91;45222.34;5078069;28;20436;-79
2023/03/06 00:46:47;;;;;;;24.87;15.50;;;;;;;-143.84;74.55;45210.94;5078368;28;20432;-78
2023/03/06 00:49:14;;;;;;;24.73;15.40;;;;;;;-143.84;74.22;45220.44;5078030;28;20545;-78
2023/03/06 00:51:41;;;;;;;20.97;13.07;;;;;;;-143.84;73.93;45209.03;5077538;28;20855;-78
2023/03/06 00:54:10;;;;;;;19.53;13.90;;;;;;;-143.84;73.78;45245.19;5078244;28;20476;-78
2023/03/06 00:56:37;;;;;;;19.23;12.93;;;;;;;-143.84;73.71;45233.78;5077517;28;20448;-78
2023/03/06 00:59:04;;;;;;;21.63;14.17;;;;;;;-143.84;73.64;45216.63;5075808;28;20422;-78
2023/03/06 01:01:32;;;;;;;25.00;15.17;;;;;;;-143.84;73.81;45201.41;5077408;28;21278;-78
2023/03/06 01:03:59;;;;;;;19.43;12.47;;;;;;;-143.84;73.93;45216.63;5077978;28;20493;-78
2023/03/06 01:06:26;;;;;;;22.60;13.07;;;;;;;-143.84;73.97;45220.44;5077148;28;20452;-78
2023/03/06 01:08:53;;;;;;;18.17;12.70;;;;;;;-143.84;73.64;45209.03;5073818;28;20437;-78
2023/03/06 01:11:22;;;;;;;20.30;13.13;;;;;;;-143.84;73.19;45214.72;5074623;28;20437;-79
2023/03/06 01:13:49;;;;;;;23.63;13.27;;;;;;;-143.84;73.03;45237.59;5074547;28;20530;-78
2023/03/06 01:16:24;;;;;;;18.70;12.70;;;;;;;-143.84;72.27;45245.19;5074677;28;20429;-78
2023/03/06 01:18:51;;;;;;;19.50;11.50;;;;;;;-143.84;71.59;45218.53;5074602;28;20424;-78
2023/03/06 01:21:19;;;;;;;19.80;11.80;;;;;;;-143.84;70.91;45235.69;5072297;28;20448;-78
2023/03/06 01:23:46;;;;;;;13.70;9.80;;;;;;;-143.84;70.28;45207.13;5073679;28;20510;-79
2023/03/06 01:26:13;;;;;;;17.20;11.27;;;;;;;-143.84;69.22;45224.25;5074316;28;20934;-79
2023/03/06 01:28:42;;;;;;;19.80;10.77;;;;;;;-143.84;68.75;45222.34;5074286;28;20433;-78
2023/03/06 01:31:10;;;;;;;12.83;9.67;;;;;;;-143.84;68.16;45214.72;5074041;28;20491;-78
2023/03/06 01:33:37;;;;;;;18.33;11.40;;;;;;;-143.84;67.47;45228.06;5074435;28;20429;-78
2023/03/06 01:36:06;;;;;;;18.60;9.60;;;;;;;-143.84;67.69;45218.53;5074608;28;20851;-78
2023/03/06 01:38:33;;;;;;;21.93;11.20;;;;;;;-143.84;67.16;45231.88;5078656;28;20452;-78
2023/03/06 01:41:02;;;;;;;14.47;10.70;;;;;;;-143.84;67.30;45231.88;5090733;28;20450;-78
2023/03/06 01:43:31;;;;;;;17.77;9.83;;;;;;;-143.84;66.78;45203.31;5091914;28;20428;-78
2023/03/06 01:46:37;;;;;;;19.90;11.43;;;;;;;-143.84;66.48;45229.97;5093665;28;20504;-78
2023/03/06 01:49:08;;;;;;;15.33;10.07;;;;;;;-143.84;66.33;45214.72;5094218;28;20476;-78
2023/03/06 01:51:39;;;;;;;12.33;8.80;;;;;;;-143.84;65.92;45243.31;5094295;28;20993;-78
2023/03/06 01:54:11;;;;;;;15.40;10.70;;;;;;;-143.84;65.92;45247.09;5094002;28;20838;-78
2023/03/06 01:56:40;;;;;;;13.90;9.10;;;;;;;-143.84;66.09;45241.41;5093821;28;20440;-78
2023/03/06 01:59:08;;;;;;;12.87;8.60;;;;;;;-143.84;65.74;45239.50;5094133;28;20436;-78
2023/03/06 02:01:39;;;;;;;14.83;8.60;;;;;;;-143.84;66.73;45209.03;5093964;28;20435;-79
2023/03/06 02:04:07;;;;;;;15.10;9.77;;;;;;;-143.84;66.49;45201.41;5093114;28;20522;-78
2023/03/06 02:06:37;;;;;;;16.83;10.47;;;;;;;-143.84;66.49;45233.78;5087956;28;20451;-78
2023/03/06 02:09:06;;;;;;;18.87;10.00;;;;;;;-143.84;65.41;45239.50;5078017;28;20440;-79
2023/03/06 02:11:33;;;;;;;14.30;8.50;;;;;;;-143.84;65.27;45209.03;5080111;28;20457;-79
2023/03/06 02:14:01;;;;;;;15.23;9.37;;;;;;;-143.84;65.61;45191.88;5073606;28;21024;-79
2023/03/06 02:16:31;;;;;;;13.90;8.97;;;;;;;-143.84;64.94;45228.06;5073394;28;20425;-79
2023/03/06 02:19:02;;;;;;;10.33;7.93;;;;;;;-143.84;64.76;45205.22;5072438;28;20931;-79
2023/03/06 02:21:32;;;;;;;15.80;9.37;;;;;;;-143.84;64.67;45226.16;5073409;28;20421;-79
2023/03/06 02:24:16;;;;;;;14.50;9.30;;;;;;;-143.84;64.73;45233.78;5073339;28;20517;-79
2023/03/06 02:26:46;;;;;;;13.53;9.07;;;;;;;-143.84;64.19;45216.63;5073034;28;20526;-78
2023/03/06 02:29:18;;;;;;;17.10;8.87;;;;;;;-143.84;64.32;45203.31;5071968;28;20437;-78
2023/03/06 02:31:45;;;;;;;13.07;8.60;;;;;;;-143.84;64.13;45226.16;5072380;28;20463;-79
2023/03/06 02:34:51;;;;;;;11.10;7.87;;;;;;;-143.84;63.40;45235.69;5076421;28;20472;-79
2023/03/06 02:37:18;;;;;;;14.43;9.70;;;;;;;-143.84;63.79;45224.25;5077585;28;20447;-78
2023/03/06 02:39:49;;;;;;;11.20;8.83;;;;;;;-143.84;63.83;45233.78;5083454;28;20449;-78
2023/03/06 02:42:22;;;;;;;13.57;8.80;;;;;;;-143.84;64.18;45228.06;5082484;28;20445;-78
2023/03/06 02:44:51;;;;;;;13.27;8.90;;;;;;;-143.84;64.46;45239.50;5080399;28;20456;-78
2023/03/06 02:47:18;;;;;;;13.13;8.70;;;;;;;-143.84;64.06;45229.97;5080476;28;20514;-78
2023/03/06 02:49:45;;;;;;;12.20;8.77;;;;;;;-143.84;64.44;45235.69;5074528;28;20484;-79
2023/03/06 02:52:12;;;;;;;15.60;9.23;;;;;;;-143.84;64.07;45207.13;5078850;28;20444;-78
2023/03/06 02:54:40;;;;;;;13.80;9.20;;;;;;;-143.84;64.22;45197.59;5082175;28;20484;-79
2023/03/06 02:57:07;;;;;;;15.10;9.87;;;;;;;-143.84;64.22;45226.16;5080278;28;20514;-78
2023/03/06 02:59:35;;;;;;;17.37;9.43;;;;;;;-143.84;64.11;45239.50;5092912;28;20432;-77
2023/03/06 03:02:02;;;;;;;14.30;9.03;;;;;;;-143.84;63.91;45224.25;5092609;28;20435;-77
2023/03/06 03:04:30;;;;;;;15.57;10.00;;;;;;;-143.84;64.02;45222.34;5092181;28;20497;-77
2023/03/06 03:06:57;;;;;;;12.63;9.27;;;;;;;-143.84;63.85;45214.72;5092791;28;20797;-77
2023/03/06 03:09:24;;;;;;;16.10;10.53;;;;;;;-143.84;63.64;45228.06;5085012;28;20517;-78
2023/03/06 03:11:51;;;;;;;12.23;9.53;;;;;;;-143.84;63.48;45289.00;5080040;28;20481;-77
2023/03/06 03:14:18;;;;;;;18.97;8.53;;;;;;;-143.84;63.63;45237.59;5079317;28;20522;-77
2023/03/06 03:16:46;;;;;;;15.50;9.67;;;;;;;-143.84;64.02;45243.31;5086074;28;20847;-78
2023/03/06 03:19:13;;;;;;;18.50;10.27;;;;;;;-143.84;63.85;45226.16;5092552;28;20863;-78
2023/03/06 03:21:41;;;;;;;13.60;9.60;;;;;;;-143.84;63.81;45229.97;5086472;28;20526;-77
2023/03/06 03:24:08;;;;;;;16.97;9.60;;;;;;;-143.84;63.11;45229.97;5090363;28;20957;-78
2023/03/06 03:26:36;;;;;;;11.43;9.03;;;;;;;-143.84;63.29;45220.44;5076572;28;20447;-78
2023/03/06 03:29:03;;;;;;;34.17;9.90;;;;;;;-143.84;63.07;45245.19;5088037;28;20444;-78
2023/03/06 03:31:31;;;;;;;14.03;10.50;;;;;;;-143.84;63.34;45201.41;5091412;28;20941;-78
2023/03/06 03:34:00;;;;;;;17.63;9.77;;;;;;;-143.84;63.07;45218.53;5086263;28;20505;-78
2023/03/06 03:36:27;;;;;;;13.40;9.90;;;;;;;-143.84;62.82;45258.53;5079995;28;20951;-78
2023/03/06 03:38:56;;;;;;;15.20;9.17;;;;;;;-143.84;62.80;45212.84;5068148;28;21009;-78
2023/03/06 03:41:24;;;;;;;12.23;9.80;;;;;;;-143.84;62.66;45237.59;5076792;28;20445;-78
2023/03/06 03:43:51;;;;;;;13.50;10.73;;;;;;;-143.84;62.06;45216.63;5075163;28;20907;-78
2023/03/06 03:46:20;;;;;;;13.43;9.53;;;;;;;-143.84;61.92;45210.94;5085393;28;20899;-78
2023/03/06 03:48:47;;;;;;;17.70;10.00;;;;;;;-143.84;61.80;45209.03;5079413;28;20484;-77
2023/03/06 03:51:16;;;;;;;16.93;8.83;;;;;;;-143.84;61.65;45193.78;5076900;28;20448;-78
2023/03/06 03:53:44;;;;;;;14.50;9.60;;;;;;;-143.84;61.48;45220.44;5077510;28;20441;-78
2023/03/06 03:56:12;;;;;;;12.13;9.60;;;;;;;-143.84;61.55;45212.84;5075476;28;20854;-78
2023/03/06 03:58:39;;;;;;;11.87;9.40;;;;;;;-143.84;61.61;45201.41;5070950;28;20526;-78
2023/03/06 04:01:07;;;;;;;15.27;9.57;;;;;;;-143.84;60.48;45195.69;5077666;28;20437;-78
2023/03/06 04:03:34;;;;;;;10.03;7.90;;;;;;;-143.84;60.27;45222.34;5080369;28;20448;-78
2023/03/06 04:06:02;;;;;;;12.93;9.30;;;;;;;-143.84;59.13;45216.63;5082222;28;20998;-78
2023/03/06 04:08:31;;;;;;;11.27;7.67;;;;;;;-143.84;58.47;45214.72;5085756;28;20476;-78
2023/03/06 04:10:58;;;;;;;11.67;8.13;;;;;;;-143.84;58.35;45228.06;5079258;28;20452;-78
2023/03/06 04:13:25;;;;;;;13.47;8.47;;;;;;;-143.84;58.25;45222.34;5082083;28;20456;-79
2023/03/06 04:15:55;;;;;;;9.93;8.40;;;;;;;-143.84;57.47;45216.63;5082273;28;20828;-76
2023/03/06 04:18:23;;;;;;;13.87;9.57;;;;;;;-143.84;57.26;45205.22;5077813;28;20458;-78
2023/03/06 04:20:51;;;;;;;12.20;9.03;;;;;;;-143.84;57.35;45186.16;5081053;28;20453;-78
2023/03/06 04:23:19;;;;;;;12.00;9.23;;;;;;;-143.84;56.76;45239.50;5081295;28;20449;-77
2023/03/06 04:25:47;;;;;;;30.37;9.50;;;;;;;-143.84;56.91;45231.88;5072017;28;20896;-77
2023/03/06 04:28:14;;;;;;;14.43;9.57;;;;;;;-143.84;56.07;45199.50;5076562;28;20467;-77
2023/03/06 04:30:42;;;;;;;14.97;9.30;;;;;;;-143.84;55.59;45216.63;5075694;28;20479;-77
2023/03/06 04:33:09;;;;;;;12.73;8.63;;;;;;;-143.84;55.31;45207.13;5083867;28;20508;-78
2023/03/06 04:35:36;;;;;;;13.33;8.97;;;;;;;-143.84;54.29;45203.31;5083095;28;21015;-78
2023/03/06 04:38:03;;;;;;;10.60;7.83;;;;;;;-143.84;53.75;45222.34;5080626;28;20448;-75
2023/03/06 04:40:33;;;;;;;11.53;7.50;;;;;;;-143.84;53.21;45205.22;5078497;28;20444;-77
2023/03/06 04:43:02;;;;;;;13.00;8.20;;;;;;;-143.84;53.46;45201.41;5082523;28;20501;-76
2023/03/06 04:45:31;;;;;;;14.03;7.90;;;;;;;-143.84;52.91;45214.72;5083711;28;20544;-77
2023/03/06 04:47:58;;;;;;;11.17;7.30;;;;;;;-143.84;53.08;45169.03;5083945;28;20455;-77
2023/03/06 04:50:31;;;;;;;14.03;8.30;;;;;;;-143.84;52.21;45220.44;5082672;28;20817;-77
2023/03/06 04:52:59;;;;;;;11.47;7.87;;;;;;;-143.84;52.53;45214.72;5084303;28;21161;-77
2023/03/06 04:55:27;;;;;;;12.23;7.87;;;;;;;-143.84;52.45;45209.03;5090018;28;20592;-79
2023/03/06 04:57:54;;;;;;;12.70;8.47;;;;;;;-143.84;51.73;45203.31;5083075;28;20444;-79
2023/03/06 05:00:29;;;;;;;7.63;6.83;;;;;;;-143.84;51.54;45205.22;5084011;28;20522;-78
2023/03/06 05:02:56;;;;;;;8.87;7.53;;;;;;;-143.84;51.10;45209.03;5086693;28;21241;-79
2023/03/06 05:05:23;;;;;;;20.43;8.60;;;;;;;-143.84;51.96;45201.41;5092952;28;20868;-79
2023/03/06 05:07:51;;;;;;;11.70;9.13;;;;;;;-143.84;51.70;45209.03;5092839;28;20428;-78
2023/03/06 05:10:19;;;;;;;15.20;7.43;;;;;;;-143.84;51.42;45214.72;5088981;28;20504;-77
2023/03/06 05:12:46;;;;;;;13.53;8.43;;;;;;;-143.84;51.55;45212.84;5077667;28;20494;-76
2023/03/06 05:15:13;;;;;;;11.10;7.70;;;;;;;-143.84;51.57;45201.41;5088227;28;20463;-78
2023/03/06 05:17:42;;;;;;;7.23;6.40;;;;;;;-143.84;51.27;45292.81;5081176;28;20459;-79
2023/03/06 05:20:11;;;;;;;11.63;7.83;;;;;;;-143.84;51.69;45174.75;5094386;28;20443;-80
2023/03/06 05:22:38;;;;;;;13.73;8.20;;;;;;;-143.84;51.73;45203.31;5089441;28;20444;-80
2023/03/06 05:25:06;;;;;;;9.60;7.20;;;;;;;-143.84;50.74;45212.84;5085976;28;20502;-80
2023/03/06 05:27:33;;;;;;;9.90;7.90;;;;;;;-143.84;51.45;45224.25;5088960;28;20448;-80
2023/03/06 05:30:00;;;;;;;11.97;8.17;;;;;;;-143.84;51.25;45216.63;5077983;28;20449;-80
2023/03/06 05:32:27;;;;;;;16.60;9.00;;;;;;;-143.84;50.19;45207.13;5075406;28;20513;-80
2023/03/06 05:34:56;;;;;;;12.20;7.10;;;;;;;-143.84;50.16;45209.03;5073627;28;20445;-80
2023/03/06 05:37:23;;;;;;;8.60;7.20;;;;;;;-143.84;50.76;45214.72;5076376;28;20472;-79
2023/03/06 05:39:51;;;;;;;9.10;6.90;;;;;;;-143.84;50.59;45212.84;5083662;28;20447;-80
2023/03/06 05:42:18;;;;;;;12.17;8.60;;;;;;;-143.84;50.75;45220.44;5079084;28;20503;-75
2023/03/06 05:44:46;;;;;;;11.30;7.47;;;;;;;-143.84;51.64;45214.72;5085306;28;20968;-77
2023/03/06 05:47:13;;;;;;;15.53;8.73;;;;;;;-143.84;51.29;45191.88;5078182;28;20465;-76
2023/03/06 05:49:49;;;;;;;11.73;8.30;;;;;;;-143.84;51.04;45184.25;5073125;28;20468;-76
2023/03/06 05:52:18;;;;;;;12.23;7.67;;;;;;;-143.84;51.38;45182.38;5080062;28;20527;-78
2023/03/06 05:54:50;;;;;;;17.17;8.17;;;;;;;-143.84;50.69;45228.06;5081793;28;20452;-78
2023/03/06 05:57:19;;;;;;;15.30;8.80;;;;;;;-143.84;50.58;45178.56;5080871;28;20512;-77
2023/03/06 05:59:47;;;;;;;11.97;7.87;;;;;;;-143.84;50.06;45186.16;5085058;28;20493;-77
2023/03/06 06:02:14;;;;;;;13.00;8.43;;;;;;;-143.84;49.50;45203.31;5080226;28;20445;-77
2023/03/06 06:04:41;;;;;;;15.13;7.70;;;;;;;-143.84;49.59;45214.72;5086391;28;20436;-77
2023/03/06 06:07:12;;;;;;;10.47;7.30;;;;;;;-143.84;48.94;45201.41;5078077;28;20460;-77
2023/03/06 06:09:42;;;;;;;11.77;8.17;;;;;;;-143.84;48.74;45189.97;5075721;28;20448;-78
2023/03/06 06:12:09;;;;;;;9.00;7.00;;;;;;;-143.84;48.54;45216.63;5079037;28;20436;-78
2023/03/06 06:14:37;;;;;;;12.80;8.37;;;;;;;-143.84;48.55;45188.06;5081798;28;20449;-78
2023/03/06 06:17:04;;;;;;;15.93;10.90;;;;;;;-143.84;48.22;45214.72;5075971;28;21009;-78
2023/03/06 06:19:32;;;;;;;13.53;8.27;;;;;;;-143.84;47.75;45222.34;5071538;28;20452;-78
2023/03/06 06:22:01;;;;;;;14.40;8.47;;;;;;;-143.84;46.69;45226.16;5081510;28;20448;-78
2023/03/06 06:24:29;;;;;;;10.53;8.37;;;;;;;-143.84;46.51;45229.97;5080598;28;20454;-77
2023/03/06 06:26:58;;;;;;;10.93;7.70;;;;;;;-143.84;46.09;45210.94;5078029;28;20479;-78
2023/03/06 06:29:27;;;;;;;11.20;7.10;;;;;;;-143.84;45.95;45163.31;5082071;28;20498;-78
2023/03/06 06:31:55;;;;;;;8.90;7.00;;;;;;;-143.84;46.20;45189.97;5075985;28;21024;-77
2023/03/06 06:34:23;;;;;;;13.33;7.70;;;;;;;-143.84;46.52;45195.69;5073072;28;20506;-77
2023/03/06 06:36:51;;;;;;;17.23;8.50;;;;;;;-143.84;46.12;45195.69;5077380;28;20514;-77
2023/03/06 06:39:20;;;;;;;10.20;7.87;;;;;;;-143.84;46.04;45189.97;5083030;28;20860;-77
2023/03/06 06:41:50;;;;;;;10.17;8.13;;;;;;;-143.84;45.26;45193.78;5085182;28;20447;-77
2023/03/06 06:44:19;;;;;;;8.33;7.37;;;;;;;-143.84;45.38;45184.25;5085152;28;20447;-77
2023/03/06 06:46:48;;;;;;;9.90;7.60;;;;;;;-143.84;44.59;45172.84;5075559;28;20446;-77
2023/03/06 06:49:16;;;;;;;15.00;8.20;;;;;;;-143.84;44.02;45157.59;5088053;28;20472;-77
2023/03/06 06:51:43;;;;;;;12.77;7.73;;;;;;;-143.84;44.06;45197.59;5092862;28;20486;-77
2023/03/06 06:54:11;;;;;;;10.90;7.63;;;;;;;-143.84;43.81;45176.66;5092732;28;20437;-77
2023/03/06 06:56:39;;;;;;;11.20;7.70;;;;;;;-143.84;43.36;45193.78;5092817;28;20572;-77
2023/03/06 06:59:06;;;;;;;17.90;7.90;;;;;;;-143.84;42.98;45178.56;5092191;28;20444;-77
2023/03/06 07:01:35;;;;;;;10.13;7.70;;;;;;;-143.84;43.16;45163.31;5085304;28;20544;-77
2023/03/06 07:04:02;;;;;;;10.70;7.03;;;;;;;-143.84;43.37;45169.03;5076458;28;20818;-78
2023/03/06 07:06:29;;;;;;;7.87;6.97;;;;;;;-143.84;42.17;45163.31;5078176;28;20448;-78
2023/03/06 07:08:56;;;;;;;16.53;6.87;;;;;;;-143.84;42.31;45203.31;5073335;28;20803;-78
2023/03/06 07:11:23;;;;;;;9.87;8.10;;;;;;;-143.84;42.73;45189.97;5074706;28;20457;-78
2023/03/06 07:13:50;;;;;;;14.80;7.33;;;;;;;-143.84;42.38;45210.94;5074554;28;20501;-78
2023/03/06 07:16:18;;;;;;;16.93;7.53;;;;;;;-143.84;42.55;45195.69;5075144;28;20508;-78
2023/03/06 07:18:47;;;;;;;7.80;6.37;;;;;;;-143.84;42.88;45155.69;5082337;28;20452;-78
2023/03/06 07:21:14;;;;;;;10.50;8.10;;;;;;;-143.84;42.85;45172.84;5075423;28;20453;-78
2023/03/06 07:23:41;;;;;;;12.10;7.33;;;;;;;-143.84;41.68;45157.59;5073331;28;20458;-77
2023/03/06 07:26:08;;;;;;;13.57;8.17;;;;;;;-143.84;42.00;45184.25;5080971;28;20465;-78
2023/03/06 07:28:35;;;;;;;8.73;7.70;;;;;;;-143.84;41.32;45170.94;5077167;28;20566;-78
2023/03/06 07:31:07;;;;;;;10.70;8.17;;;;;;;-143.84;41.67;45159.50;5075915;28;20458;-78
2023/03/06 07:33:34;;;;;;;26.87;7.27;;;;;;;-143.84;40.26;45172.84;5075061;28;20445;-78
2023/03/06 07:36:03;;;;;;;11.83;8.20;;;;;;;-143.84;40.37;45155.69;5078637;28;20487;-78
2023/03/06 07:38:30;;;;;;;16.53;8.63;;;;;;;-143.84;40.66;45157.59;5081542;28;20480;-78
2023/03/06 07:40:57;;;;;;;11.77;8.80;;;;;;;-143.84;39.83;45151.91;5078574;28;20449;-78
2023/03/06 07:43:24;;;;;;;16.10;9.20;;;;;;;-143.84;40.09;45169.03;5071749;28;20806;-78
2023/03/06 07:45:57;;;;;;;15.60;10.43;;;;;;;-143.84;39.83;45155.69;5071870;28;20440;-78
2023/03/06 07:48:24;;;;;;;12.33;8.67;;;;;;;-143.84;40.00;45165.22;5078192;28;20484;-78
2023/03/06 07:50:56;;;;;;;13.10;8.63;;;;;;;-143.84;39.54;45155.69;5083502;28;21241;-78
2023/03/06 07:53:25;;;;;;;13.17;9.10;;;;;;;-143.84;39.40;45159.50;5084516;28;20487;-78
2023/03/06 07:55:52;;;;;;;13.27;8.00;;;;;;;-143.84;39.15;45153.81;5083361;28;21295;-78
2023/03/06 07:58:20;;;;;;;10.33;8.30;;;;;;;-143.84;39.04;45165.22;5072279;28;20455;-78
2023/03/06 08:00:47;;;;;;;10.13;7.87;;;;;;;-143.84;38.74;45151.91;5080087;28;20828;-78
2023/03/06 08:03:15;;;;;;;11.97;7.40;;;;;;;-143.84;38.04;45146.19;5073655;28;20448;-78
2023/03/06 08:05:43;;;;;;;14.67;8.70;;;;;;;-143.84;37.89;45155.69;5074819;28;20816;-78
2023/03/06 08:08:10;;;;;;;10.87;9.10;;;;;;;-143.84;38.24;45140.47;5072014;28;20452;-78
2023/03/06 08:10:39;;;;;;;9.53;8.10;;;;;;;-143.84;38.34;45127.13;5084220;28;20750;-78
2023/03/06 08:13:07;;;;;;;9.60;8.53;;;;;;;-143.84;38.46;45151.91;5086830;28;20452;-78
2023/03/06 08:15:34;;;;;;;14.20;9.17;;;;;;;-143.84;38.91;45163.31;5076413;28;20977;-78
2023/03/06 08:18:01;;;;;;;16.97;9.33;;;;;;;-143.84;38.72;45148.09;5077156;28;20429;-78
2023/03/06 08:20:28;;;;;;;15.67;8.80;;;;;;;-143.84;37.96;45144.28;5077978;28;20457;-78
2023/03/06 08:22:55;;;;;;;21.40;9.70;;;;;;;-143.84;38.44;45153.81;5076959;28;20460;-78
2023/03/06 08:25:23;;;;;;;18.13;9.67;;;;;;;-143.84;37.96;45161.41;5072320;28;20844;-77
2023/03/06 08:27:54;;;;;;;14.40;9.80;;;;;;;-143.84;38.32;45186.16;5074944;28;20531;-80
2023/03/06 08:30:22;;;;;;;11.67;8.93;;;;;;;-143.84;38.02;45167.13;5078535;28;20449;-78
2023/03/06 08:32:49;;;;;;;23.33;11.67;;;;;;;-143.84;38.09;45127.13;5083344;28;20444;-78
2023/03/06 08:35:16;;;;;;;14.37;8.60;;;;;;;-143.84;37.84;45165.22;5085519;28;20949;-78
2023/03/06 08:37:43;;;;;;;9.37;8.03;;;;;;;-143.84;37.98;45148.09;5075918;28;20486;-80
2023/03/06 08:40:12;;;;;;;11.33;7.93;;;;;;;-143.84;37.95;45144.28;5077631;28;20435;-78
2023/03/06 08:42:39;;;;;;;18.43;9.57;;;;;;;-143.84;37.10;45142.38;5093799;28;20445;-78
2023/03/06 08:45:09;;;;;;;10.43;7.40;;;;;;;-143.84;37.41;45132.84;5087644;28;20993;-78
2023/03/06 08:47:36;;;;;;;11.90;8.80;;;;;;;-143.84;37.61;45172.84;5078290;28;20552;-78
2023/03/06 08:50:04;;;;;;;19.00;8.50;;;;;;;-143.84;37.51;45146.19;5082323;28;20485;-78
2023/03/06 08:52:31;;;;;;;10.73;8.13;;;;;;;-143.84;37.12;45136.66;5084884;28;20958;-78
2023/03/06 08:55:02;;;;;;;9.67;8.20;;;;;;;-143.84;36.70;45150.00;5078080;28;20470;-78
2023/03/06 08:57:30;;;;;;;14.90;8.40;;;;;;;-143.84;36.98;45151.91;5076407;28;20481;-78
2023/03/06 08:59:57;;;;;;;18.90;8.50;;;;;;;-143.84;36.50;45138.56;5083927;28;20446;-78
2023/03/06 09:02:26;;;;;;;11.30;8.00;;;;;;;-143.84;36.38;45153.81;5082831;28;20811;-78
2023/03/06 09:04:54;;;;;;;9.17;8.20;;;;;;;-143.84;36.75;45150.00;5085522;28;20450;-78
2023/03/06 09:07:21;;;;;;;12.70;8.50;;;;;;;-143.84;35.93;45136.66;5090439;28;20451;-78
2023/03/06 09:09:48;;;;;;;11.20;8.07;;;;;;;-143.84;36.38;45129.03;5094381;28;20430;-78
2023/03/06 09:12:15;;;;;;;10.50;7.50;;;;;;;-143.84;36.02;45167.13;5080316;28;20477;-78
2023/03/06 09:14:42;;;;;;;11.50;8.47;;;;;;;-143.84;36.30;45148.09;5083633;28;20447;-78
2023/03/06 09:17:09;;;;;;;22.03;7.83;;;;;;;-143.84;35.89;45121.44;5078788;28;20486;-78
2023/03/06 09:19:38;;;;;;;12.17;8.13;;;;;;;-143.84;35.39;45136.66;5083113;28;20454;-79
2023/03/06 09:22:05;;;;;;;12.73;8.97;;;;;;;-143.84;35.94;45130.94;5082476;28;20953;-80
2023/03/06 09:24:33;;;;;;;11.20;8.10;;;;;;;-143.84;35.53;45129.03;5084327;28;20871;-80
2023/03/06 09:27:00;;;;;;;11.83;8.90;;;;;;;-143.84;35.08;45117.63;5078585;28;20451;-79
2023/03/06 09:29:27;;;;;;;11.60;7.70;;;;;;;-143.84;34.95;45148.09;5073566;28;20437;-79
2023/03/06 09:31:55;;;;;;;13.70;8.77;;;;;;;-143.84;34.27;45127.13;5074342;28;20448;-79
2023/03/06 09:34:22;;;;;;;16.30;8.40;;;;;;;-143.84;34.81;45127.13;5074256;28;20458;-79
2023/03/06 09:36:50;;;;;;;13.90;8.07;;;;;;;-143.84;34.05;45117.63;5073974;28;20479;-79
2023/03/06 09:39:17;;;;;;;19.53;7.70;;;;;;;-143.84;34.15;45136.66;5074471;28;20495;-79
2023/03/06 09:41:47;;;;;;;10.03;8.13;;;;;;;-143.84;33.24;45113.81;5073942;28;20467;-79
2023/03/06 09:44:17;;;;;;;10.37;8.00;;;;;;;-143.84;34.75;45150.00;5073344;28;20432;-79
2023/03/06 09:47:00;;;;;;;14.30;7.43;;;;;;;-143.84;38.81;45132.84;5073685;28;20441;-79
2023/03/06 09:49:49;;;;;;;11.13;6.97;;;;;;;-143.84;41.43;45117.63;5073179;28;20481;-79
2023/03/06 09:52:31;;;;;;;12.67;6.87;;;;;;;-143.84;42.60;45100.47;5073352;28;20435;-79
2023/03/06 09:55:09;;;;;;;10.60;8.03;;;;;;;-143.84;42.15;45151.91;5073914;28;20437;-79
2023/03/06 09:57:41;;;;;;;11.27;7.27;;;;;;;-143.84;42.62;45170.94;5082570;28;20475;-79
2023/03/06 10:00:14;;;;;;;10.70;7.73;;;;;;;-143.84;42.93;45151.91;5087279;28;20447;-79
2023/03/06 10:02:44;;;;;;;7.97;7.17;;;;;;;-143.84;43.57;45150.00;5083158;28;20490;-79
2023/03/06 10:05:17;;;;;;;11.43;8.27;;;;;;;-143.84;41.46;45155.69;5094270;28;20425;-79
2023/03/06 10:07:50;;;;;;;11.20;8.03;;;;;;;-143.84;42.79;45159.50;5094182;28;20573;-79
2023/03/06 10:10:20;;;;;;;10.60;8.83;;;;;;;-143.84;44.32;45155.69;5078776;28;20521;-79
2023/03/06 10:12:55;;;;;;;14.53;10.83;;;;;;;-143.84;47.44;45167.13;5074336;28;20445;-79
2023/03/06 10:15:26;;;;;;;15.83;9.67;;;;;;;-143.84;48.99;45203.31;5080165;28;20880;-78
2023/03/06 10:17:53;;;;;;;14.50;9.87;;;;;;;-143.84;49.40;45150.00;5075880;28;20480;-79
2023/03/06 10:20:24;;;;;;;13.87;10.43;;;;;;;-143.84;51.44;45129.03;5073506;28;20447;-79
2023/03/06 10:23:23;;;;;;;11.40;9.77;;;;;;;-143.84;49.26;45136.66;5081816;28;20459;-79
2023/03/06 10:25:57;;;;;;;13.53;8.73;;;;;;;-143.84;46.25;45153.81;5084199;28;20534;-79
2023/03/06 10:28:30;;;;;;;21.37;10.40;;;;;;;-143.84;50.37;45136.66;5093115;28;20443;-79
2023/03/06 10:31:03;;;;;;;15.00;10.70;;;;;;;-143.84;48.63;45151.91;5093605;28;20441;-79
2023/03/06 10:33:44;;;;;;;12.80;9.67;;;;;;;-143.84;46.42;45140.47;5092898;28;20448;-79
2023/03/06 10:36:15;;;;;;;14.70;8.67;;;;;;;-143.84;46.58;45150.00;5083976;28;20879;-79
2023/03/06 10:38:47;;;;;;;11.47;9.17;;;;;;;-143.84;46.45;45136.66;5079621;28;20455;-79
2023/03/06 10:41:24;;;;;;;10.37;8.37;;;;;;;-143.84;39.82;45125.22;5077296;28;20961;-79
2023/03/06 10:44:25;;;;;;;16.77;8.73;;;;;;;-143.84;36.79;45151.91;5079673;28;20447;-79
2023/03/06 10:46:55;;;;;;;15.57;8.47;;;;;;;-143.84;35.96;45132.84;5000743;28;21057;-79
2023/03/06 10:49:29;;;;;;;14.27;8.50;;;;;;;-143.84;35.48;45155.69;5002045;28;20482;-79
2023/03/06 10:51:59;;;;;;;12.93;8.63;;;;;;;-143.84;35.05;45151.91;5039556;28;20455;-79
2023/03/06 10:54:29;;;;;;;16.37;8.77;;;;;;;-143.84;34.54;45138.56;5074727;28;20452;-79
2023/03/06 10:56:56;;;;;;;14.53;9.40;;;;;;;-143.84;35.27;45148.09;5074912;28;20489;-79
2023/03/06 10:59:27;;;;;;;33.03;12.33;;;;;;;-143.84;36.51;45148.09;5081227;28;20509;-79
2023/03/06 11:01:56;;;;;;;16.60;11.07;;;;;;;-143.84;35.59;45142.38;5083525;28;20448;-79
2023/03/06 11:04:27;;;;;;;13.20;8.90;;;;;;;-143.84;35.97;45130.94;5074975;28;20506;-80
2023/03/06 11:07:17;;;;;;;13.93;8.90;;;;;;;-143.84;34.47;45155.69;5080675;28;20451;-80
2023/03/06 11:09:58;;;;;;;20.07;11.17;;;;;;;-143.84;34.08;45110.00;5082992;28;20513;-78
2023/03/06 11:12:28;;;;;;;15.40;10.67;;;;;;;-143.84;33.83;45140.47;5079846;28;20458;-78
2023/03/06 11:15:22;;;;;;;17.10;11.07;;;;;;;-143.84;34.37;45110.00;5081985;28;21005;-78